Time;durP1;ratioP1;P1;durP2;ratioP2;P2;SDS_P1;SDS_P2;PMS_P1;PMS_P2;Temp;Humidity;BMP_temperature;BMP_pressure;BME280_temperature;BME280_humidity;BME280_pressure;Samples;Min_cycle;Max_cycle;Signal;HPM_P1;HPM_P2
2020/12/22 00:01:57;;;;;;;6.23;3.33;;;8.50;99.90;;;;;;5036515;28;20246;-42
2020/12/22 00:04:25;;;;;;;3.53;3.23;;;8.50;99.90;;;;;;5036130;28;20216;-42
2020/12/22 00:06:56;;;;;;;4.10;3.43;;;8.50;99.90;;;;;;5033845;28;20597;-40
2020/12/22 00:09:24;;;;;;;4.10;2.67;;;8.60;99.90;;;;;;5028661;28;20204;-42
2020/12/22 00:11:51;;;;;;;2.93;2.73;;;8.60;99.90;;;;;;5044280;28;20239;-42
2020/12/22 00:14:17;;;;;;;3.63;3.30;;;8.60;99.90;;;;;;5016583;28;20619;-42
2020/12/22 00:16:44;;;;;;;3.17;2.87;;;8.70;99.90;;;;;;5034433;28;20207;-42
2020/12/22 00:19:11;;;;;;;3.27;2.97;;;8.70;99.90;;;;;;5034673;28;20203;-41
2020/12/22 00:21:37;;;;;;;2.93;2.73;;;8.70;99.90;;;;;;5034922;28;20307;-42
2020/12/22 00:24:04;;;;;;;3.63;2.58;;;8.70;99.90;;;;;;5034095;28;20612;-41
2020/12/22 00:26:32;;;;;;;2.63;2.40;;;8.70;99.90;;;;;;5033671;28;20200;-41
2020/12/22 00:28:59;;;;;;;2.95;2.42;;;8.70;99.90;;;;;;5052587;28;20215;-41
2020/12/22 00:31:25;;;;;;;3.67;2.78;;;8.70;99.90;;;;;;5053655;28;20302;-41
2020/12/22 00:33:52;;;;;;;2.85;2.65;;;8.70;99.90;;;;;;5053684;28;20196;-42
2020/12/22 00:36:19;;;;;;;2.43;2.23;;;8.80;99.90;;;;;;5053974;28;20187;-41
2020/12/22 00:38:45;;;;;;;2.13;2.03;;;8.80;99.90;;;;;;5047788;28;20454;-42
2020/12/22 00:41:13;;;;;;;1.50;1.40;;;8.80;99.90;;;;;;5032377;28;20216;-41
2020/12/22 00:43:41;;;;;;;2.43;2.23;;;8.80;99.90;;;;;;5033052;28;20287;-42
2020/12/22 00:46:08;;;;;;;1.63;1.53;;;8.80;99.90;;;;;;5033056;28;20192;-42
2020/12/22 00:48:35;;;;;;;1.83;1.70;;;8.80;99.90;;;;;;5032598;28;20236;-41
2020/12/22 00:51:01;;;;;;;1.90;1.30;;;8.90;99.90;;;;;;5026035;28;20283;-42
2020/12/22 00:53:29;;;;;;;1.83;1.73;;;9.00;99.90;;;;;;5014093;28;20195;-42
2020/12/22 00:55:56;;;;;;;1.67;1.55;;;8.90;99.90;;;;;;4995343;28;20295;-41
2020/12/22 00:58:22;;;;;;;3.57;1.70;;;8.80;99.90;;;;;;5014313;28;20208;-41
2020/12/22 01:00:51;;;;;;;1.50;1.40;;;8.80;99.90;;;;;;4995204;28;20220;-42
2020/12/22 01:03:17;;;;;;;1.60;1.50;;;8.80;99.90;;;;;;5013568;28;20295;-43
2020/12/22 01:05:44;;;;;;;1.47;1.37;;;9.00;99.90;;;;;;5012903;28;20204;-41
2020/12/22 01:08:10;;;;;;;2.85;1.67;;;8.80;99.90;;;;;;5028294;28;20684;-41
2020/12/22 01:10:37;;;;;;;1.33;1.27;;;8.80;99.90;;;;;;5032490;28;20300;-41
2020/12/22 01:13:03;;;;;;;1.98;1.75;;;8.90;99.90;;;;;;5021530;28;20206;-41
2020/12/22 01:15:30;;;;;;;1.27;1.00;;;8.90;99.90;;;;;;5030856;28;20211;-41
2020/12/22 01:17:57;;;;;;;1.40;1.30;;;8.90;99.90;;;;;;5031814;28;20228;-42
2020/12/22 01:20:24;;;;;;;1.45;1.33;;;9.00;99.90;;;;;;5031544;28;20249;-42
2020/12/22 01:22:50;;;;;;;1.50;1.40;;;9.00;99.90;;;;;;5031884;28;20224;-41
2020/12/22 01:25:17;;;;;;;4.63;1.70;;;9.00;99.90;;;;;;5019586;28;20283;-43
2020/12/22 01:27:43;;;;;;;1.38;1.27;;;9.10;99.90;;;;;;5028432;28;20212;-42
2020/12/22 01:30:10;;;;;;;1.42;1.33;;;9.10;99.90;;;;;;5031928;28;20191;-42
2020/12/22 01:32:36;;;;;;;1.35;1.25;;;9.20;99.90;;;;;;5029776;28;20228;-42
2020/12/22 01:35:04;;;;;;;2.03;1.17;;;9.20;99.90;;;;;;5012730;28;20614;-42
2020/12/22 01:37:31;;;;;;;2.45;1.45;;;9.20;99.90;;;;;;5022542;28;20342;-41
2020/12/22 01:39:57;;;;;;;1.23;1.13;;;9.20;99.90;;;;;;5032002;28;20207;-42
2020/12/22 01:42:23;;;;;;;2.33;1.52;;;9.20;99.90;;;;;;5031594;28;20317;-41
2020/12/22 01:44:50;;;;;;;1.40;1.30;;;9.20;99.90;;;;;;5017282;28;20197;-43
2020/12/22 01:47:17;;;;;;;1.08;1.08;;;9.20;99.90;;;;;;5017378;28;20262;-39
2020/12/22 01:49:44;;;;;;;1.58;1.48;;;9.20;99.90;;;;;;5012371;28;20204;-41
2020/12/22 01:52:12;;;;;;;0.95;0.95;;;9.30;99.90;;;;;;5033643;28;20265;-40
2020/12/22 01:54:38;;;;;;;1.55;1.00;;;9.30;99.90;;;;;;5025398;28;20735;-41
2020/12/22 01:57:10;;;;;;;0.97;0.97;;;9.30;99.90;;;;;;5027229;28;20239;-41
2020/12/22 01:59:37;;;;;;;1.58;1.00;;;9.30;99.90;;;;;;5029501;28;20196;-41
2020/12/22 02:02:03;;;;;;;1.30;1.10;;;9.40;99.90;;;;;;5027144;28;20269;-41
2020/12/22 02:04:30;;;;;;;0.75;0.75;;;9.40;99.90;;;;;;5030570;28;20226;-41
2020/12/22 02:06:58;;;;;;;1.50;1.40;;;9.40;99.90;;;;;;5024511;28;20212;-41
2020/12/22 02:09:26;;;;;;;1.23;1.10;;;9.40;99.90;;;;;;5027172;28;20664;-41
2020/12/22 02:11:52;;;;;;;1.13;1.00;;;9.50;99.90;;;;;;5028930;28;20254;-41
2020/12/22 02:14:19;;;;;;;0.88;0.88;;;9.40;99.90;;;;;;5028240;28;20223;-41
2020/12/22 02:16:45;;;;;;;1.00;1.00;;;9.40;99.90;;;;;;5032891;28;20219;-40
2020/12/22 02:19:12;;;;;;;0.98;0.98;;;9.40;99.90;;;;;;5012479;28;20697;-41
2020/12/22 02:21:39;;;;;;;1.23;1.13;;;9.50;99.90;;;;;;5011653;28;20267;-41
2020/12/22 02:24:06;;;;;;;2.20;0.80;;;9.50;99.90;;;;;;5012607;28;20730;-40
2020/12/22 02:26:32;;;;;;;1.85;1.23;;;9.60;99.90;;;;;;5011395;28;20278;-40
2020/12/22 02:28:59;;;;;;;1.10;1.00;;;9.50;99.90;;;;;;5027318;28;20296;-41
2020/12/22 02:31:26;;;;;;;1.73;1.00;;;9.50;99.90;;;;;;5029152;28;20210;-41
2020/12/22 02:33:53;;;;;;;1.00;0.83;;;9.50;99.90;;;;;;5031169;28;20203;-41
2020/12/22 02:36:20;;;;;;;1.00;1.00;;;9.50;99.90;;;;;;5019422;28;20223;-41
2020/12/22 02:38:47;;;;;;;1.13;0.83;;;9.60;99.90;;;;;;5022562;28;20196;-41
2020/12/22 02:41:14;;;;;;;0.80;0.80;;;9.60;99.90;;;;;;5030584;28;20306;-41
2020/12/22 02:43:40;;;;;;;1.17;1.02;;;9.60;99.90;;;;;;5029083;28;20239;-41
2020/12/22 02:46:07;;;;;;;0.80;0.80;;;9.70;99.90;;;;;;5030712;28;20612;-41
2020/12/22 02:48:34;;;;;;;0.70;0.70;;;9.70;99.90;;;;;;5017940;28;20259;-40
2020/12/22 02:51:00;;;;;;;0.80;0.80;;;9.70;99.90;;;;;;5026521;28;20310;-41
2020/12/22 02:53:27;;;;;;;1.27;0.90;;;9.80;99.90;;;;;;5011280;28;20236;-40
2020/12/22 02:55:54;;;;;;;0.85;0.80;;;9.80;99.90;;;;;;5010706;28;20689;-40
2020/12/22 02:58:21;;;;;;;0.88;0.88;;;9.80;99.90;;;;;;5019669;28;20293;-40
2020/12/22 03:00:48;;;;;;;0.83;0.83;;;9.70;99.90;;;;;;5029741;28;20221;-41
2020/12/22 03:03:14;;;;;;;0.70;0.70;;;9.80;99.90;;;;;;5029163;28;20238;-40
2020/12/22 03:05:41;;;;;;;1.17;1.10;;;9.80;99.90;;;;;;5014771;28;20299;-41
2020/12/22 03:08:09;;;;;;;2.00;0.90;;;9.80;99.90;;;;;;5022336;28;20223;-41
2020/12/22 03:10:35;;;;;;;0.50;0.50;;;9.90;99.90;;;;;;5024549;28;20580;-41
2020/12/22 03:13:03;;;;;;;1.03;0.80;;;9.80;99.90;;;;;;5033657;28;20741;-41
2020/12/22 03:15:30;;;;;;;0.80;0.80;;;9.90;99.90;;;;;;5033748;28;20209;-41
2020/12/22 03:17:57;;;;;;;0.63;0.63;;;9.90;99.90;;;;;;5034133;28;20262;-40
2020/12/22 03:20:24;;;;;;;0.97;0.97;;;9.90;99.90;;;;;;5034099;28;20236;-40
2020/12/22 03:22:51;;;;;;;0.73;0.73;;;9.90;99.90;;;;;;5032087;28;20231;-41
2020/12/22 03:25:18;;;;;;;3.83;0.80;;;9.90;99.90;;;;;;5036083;28;20934;-41
2020/12/22 03:27:44;;;;;;;1.73;0.97;;;10.00;99.90;;;;;;5034057;28;20228;-41
2020/12/22 03:30:13;;;;;;;0.60;0.60;;;10.00;99.90;;;;;;5032154;28;20206;-41
2020/12/22 03:32:40;;;;;;;0.67;0.67;;;10.00;99.90;;;;;;5023025;28;20711;-42
2020/12/22 03:35:07;;;;;;;2.20;0.70;;;10.10;99.90;;;;;;5018987;28;20287;-42
2020/12/22 03:37:35;;;;;;;0.40;0.40;;;10.20;99.90;;;;;;5033395;28;20232;-41
2020/12/22 03:40:04;;;;;;;0.50;0.50;;;10.20;99.90;;;;;;5015630;28;20214;-41
2020/12/22 03:42:31;;;;;;;1.50;0.50;;;10.20;99.90;;;;;;5020721;28;20243;-41
2020/12/22 03:44:57;;;;;;;0.60;0.60;;;10.20;99.90;;;;;;5033095;28;20252;-41
2020/12/22 03:47:25;;;;;;;0.60;0.60;;;10.20;99.90;;;;;;5015394;28;20217;-41
2020/12/22 03:49:51;;;;;;;0.38;0.38;;;10.30;99.90;;;;;;5033424;28;20197;-41
2020/12/22 03:52:18;;;;;;;0.50;0.50;;;10.40;99.90;;;;;;5025392;28;20217;-41
2020/12/22 03:54:45;;;;;;;0.40;0.40;;;10.50;99.90;;;;;;5031980;28;20526;-41
2020/12/22 03:57:13;;;;;;;0.40;0.40;;;10.50;99.90;;;;;;5033491;28;20228;-41
2020/12/22 03:59:40;;;;;;;0.83;0.33;;;10.60;99.90;;;;;;5033337;28;20237;-41
2020/12/22 04:02:06;;;;;;;0.70;0.60;;;10.60;99.90;;;;;;5030762;28;20254;-41
2020/12/22 04:04:34;;;;;;;0.40;0.40;;;10.70;99.90;;;;;;5013643;28;20212;-42
2020/12/22 04:07:00;;;;;;;0.60;0.60;;;10.70;99.90;;;;;;5024028;28;20773;-41
2020/12/22 04:09:27;;;;;;;0.57;0.55;;;10.80;99.90;;;;;;5032797;28;20521;-41
2020/12/22 04:11:54;;;;;;;0.50;0.50;;;10.80;99.90;;;;;;5032436;28;20280;-41
2020/12/22 04:14:20;;;;;;;0.60;0.60;;;10.80;99.90;;;;;;5032446;28;20210;-40
2020/12/22 04:16:48;;;;;;;1.55;0.55;;;10.80;99.90;;;;;;5029755;28;20291;-41
2020/12/22 04:19:15;;;;;;;0.60;0.60;;;10.80;99.90;;;;;;5032831;28;20561;-41
2020/12/22 04:21:43;;;;;;;0.50;0.50;;;10.80;99.90;;;;;;5023326;28;20218;-41
2020/12/22 04:24:12;;;;;;;0.70;0.70;;;10.80;99.90;;;;;;5013247;28;20271;-41
2020/12/22 04:26:38;;;;;;;0.63;0.63;;;10.80;99.90;;;;;;5013845;28;20543;-40
2020/12/22 04:29:05;;;;;;;0.70;0.70;;;10.80;99.90;;;;;;5012593;28;20219;-40
2020/12/22 04:31:32;;;;;;;0.70;0.70;;;10.90;99.90;;;;;;5013074;28;20289;-41
2020/12/22 04:33:59;;;;;;;0.70;0.70;;;10.90;99.90;;;;;;5013159;28;20232;-41
2020/12/22 04:36:26;;;;;;;1.23;0.70;;;10.90;99.90;;;;;;5022838;28;20199;-41
2020/12/22 04:38:54;;;;;;;4.30;0.63;;;10.90;99.90;;;;;;5032390;28;20201;-41
2020/12/22 04:41:22;;;;;;;0.52;0.52;;;10.90;99.90;;;;;;5032194;28;20725;-42
2020/12/22 04:43:50;;;;;;;0.75;0.68;;;11.00;99.90;;;;;;5026121;28;20213;-42
2020/12/22 04:46:19;;;;;;;1.02;0.60;;;11.00;99.90;;;;;;5012565;28;20205;-40
2020/12/22 04:48:51;;;;;;;1.40;0.90;;;11.00;99.90;;;;;;5012421;28;20286;-41
2020/12/22 04:51:18;;;;;;;0.60;0.60;;;11.10;99.90;;;;;;5012335;28;20223;-41
2020/12/22 04:53:45;;;;;;;0.60;0.60;;;11.10;99.90;;;;;;5012274;28;20192;-41
2020/12/22 04:56:13;;;;;;;0.75;0.75;;;11.10;99.90;;;;;;5013729;28;20207;-40
2020/12/22 04:58:40;;;;;;;0.50;0.50;;;11.10;99.90;;;;;;5012070;28;20252;-41
2020/12/22 05:01:07;;;;;;;0.60;0.60;;;11.20;99.90;;;;;;5003127;28;20231;-40
2020/12/22 05:03:34;;;;;;;0.50;0.50;;;11.40;99.90;;;;;;5056214;22;20244;-41
2020/12/22 05:06:00;;;;;;;0.50;0.50;;;11.50;99.90;;;;;;5064392;28;20198;-41
2020/12/22 05:08:27;;;;;;;2.75;1.08;;;11.50;99.90;;;;;;5054655;28;20226;-41
2020/12/22 05:10:54;;;;;;;2.20;1.00;;;11.60;99.90;;;;;;5066606;28;20244;-41
2020/12/22 05:13:22;;;;;;;1.05;0.95;;;11.60;99.90;;;;;;5040901;28;20597;-41
2020/12/22 05:15:50;;;;;;;2.55;1.00;;;11.70;99.90;;;;;;5032140;28;20200;-42
2020/12/22 05:18:20;;;;;;;1.08;1.05;;;11.80;99.90;;;;;;5046778;28;20671;-41
2020/12/22 05:20:48;;;;;;;0.77;0.77;;;11.90;99.90;;;;;;5051507;28;20264;-42
2020/12/22 05:23:16;;;;;;;1.10;1.10;;;11.90;99.90;;;;;;5051775;28;20203;-42
2020/12/22 05:25:45;;;;;;;0.80;0.80;;;12.10;99.90;;;;;;5052021;28;20207;-41
2020/12/22 05:28:14;;;;;;;1.13;0.88;;;12.10;99.90;;;;;;5050680;28;20752;-42
2020/12/22 05:30:42;;;;;;;0.98;0.98;;;12.10;99.90;;;;;;5051607;28;20301;-42
2020/12/22 05:33:09;;;;;;;1.80;0.90;;;12.20;99.90;;;;;;5051647;28;20210;-41
2020/12/22 05:35:40;;;;;;;1.10;1.10;;;12.20;99.90;;;;;;5040834;28;20357;-42
2020/12/22 05:38:07;;;;;;;1.40;1.30;;;12.20;99.90;;;;;;5043893;28;20205;-42
2020/12/22 05:40:34;;;;;;;1.40;1.40;;;12.30;99.90;;;;;;5050801;28;20306;-41
2020/12/22 05:43:01;;;;;;;1.30;1.30;;;12.40;99.90;;;;;;5039693;28;20277;-42
2020/12/22 05:45:31;;;;;;;1.38;1.38;;;12.50;99.90;;;;;;5033755;28;20198;-41
2020/12/22 05:47:59;;;;;;;1.37;1.30;;;12.50;99.90;;;;;;5039514;28;20213;-41
2020/12/22 05:50:26;;;;;;;1.70;1.60;;;12.50;99.90;;;;;;5050870;28;20815;-42
2020/12/22 05:52:55;;;;;;;1.70;1.60;;;12.60;99.90;;;;;;5051399;28;20578;-41
2020/12/22 05:55:26;;;;;;;1.42;1.33;;;12.60;99.90;;;;;;5034464;28;20293;-41
2020/12/22 05:58:06;;;;;;;1.90;1.67;;;12.60;99.90;;;;;;5031150;28;20760;-41
2020/12/22 06:00:33;;;;;;;2.20;2.00;;;12.70;99.90;;;;;;5031075;28;20273;-41
2020/12/22 06:03:06;;;;;;;2.72;2.08;;;12.90;99.90;;;;;;5031417;28;20689;-41
2020/12/22 06:05:36;;;;;;;2.05;1.85;;;12.90;99.90;;;;;;5048888;28;20206;-41
2020/12/22 06:08:05;;;;;;;5.30;2.20;;;12.90;99.90;;;;;;5037856;28;20369;-41
2020/12/22 06:10:33;;;;;;;2.70;1.73;;;13.00;99.90;;;;;;5031165;28;20210;-41
2020/12/22 06:13:01;;;;;;;1.95;1.73;;;12.90;99.90;;;;;;5042487;28;20613;-41
2020/12/22 06:15:28;;;;;;;1.75;1.65;;;12.90;99.90;;;;;;5049075;28;20195;-41
2020/12/22 06:17:54;;;;;;;1.88;1.77;;;12.90;99.90;;;;;;5032580;28;20285;-41
2020/12/22 06:20:23;;;;;;;2.45;2.35;;;12.90;99.90;;;;;;5030964;28;20277;-41
2020/12/22 06:22:51;;;;;;;2.20;2.05;;;12.90;99.90;;;;;;5042906;28;20227;-41
2020/12/22 06:25:21;;;;;;;2.33;2.13;;;12.90;99.90;;;;;;5050679;28;20198;-41
2020/12/22 06:27:48;;;;;;;4.55;2.60;;;13.00;99.90;;;;;;5051514;28;20219;-41
2020/12/22 06:30:17;;;;;;;2.65;2.45;;;13.00;99.90;;;;;;5052330;28;20196;-41
2020/12/22 06:32:44;;;;;;;2.83;2.63;;;13.00;99.90;;;;;;5037936;28;20194;-39
2020/12/22 06:35:31;;;;;;;3.28;3.08;;;13.00;99.90;;;;;;5033735;28;20538;-40
2020/12/22 06:37:58;;;;;;;4.65;4.35;;;13.00;99.90;;;;;;5038641;28;20218;-40
2020/12/22 06:40:53;;;;;;;3.90;3.60;;;12.90;99.90;;;;;;5043739;28;20664;-41
2020/12/22 06:43:39;;;;;;;4.22;3.92;;;12.90;99.90;;;;;;5051837;28;20210;-41
2020/12/22 06:46:08;;;;;;;4.82;4.53;;;12.90;99.90;;;;;;5042230;28;20202;-41
2020/12/22 06:48:44;;;;;;;4.57;4.18;;;12.80;99.90;;;;;;5038951;28;20222;-41
2020/12/22 06:51:28;;;;;;;4.65;4.28;;;12.90;99.90;;;;;;5046314;28;20232;-41
2020/12/22 06:53:54;;;;;;;4.47;4.18;;;12.90;99.90;;;;;;5050069;28;20241;-41
2020/12/22 06:56:43;;;;;;;4.50;4.30;;;13.00;99.90;;;;;;5032643;28;20190;-41
2020/12/22 06:59:10;;;;;;;4.47;4.07;;;13.00;99.90;;;;;;5013593;28;20739;-41
2020/12/22 07:01:44;;;;;;;4.22;3.92;;;13.00;99.90;;;;;;5017282;28;20558;-41
2020/12/22 07:04:19;;;;;;;4.72;4.43;;;13.00;99.90;;;;;;5035881;28;20201;-40
2020/12/22 07:06:51;;;;;;;4.95;4.65;;;13.00;99.90;;;;;;5054912;28;20210;-41
2020/12/22 07:09:20;;;;;;;4.53;4.22;;;13.00;99.90;;;;;;5036591;28;20585;-41
2020/12/22 07:11:47;;;;;;;4.72;4.43;;;12.90;99.90;;;;;;5048408;28;20732;-40
2020/12/22 07:14:18;;;;;;;4.55;4.25;;;12.90;99.90;;;;;;5045311;28;20214;-41
2020/12/22 07:16:46;;;;;;;5.28;4.78;;;12.90;99.90;;;;;;5037188;28;20197;-41
2020/12/22 07:19:17;;;;;;;4.90;4.30;;;12.90;99.90;;;;;;5043690;28;20194;-40
2020/12/22 07:21:45;;;;;;;5.75;5.35;;;12.90;99.90;;;;;;5033184;28;20700;-40
2020/12/22 07:24:13;;;;;;;5.45;5.05;;;12.90;99.90;;;;;;5038004;28;20193;-40
2020/12/22 07:26:41;;;;;;;4.60;4.30;;;12.90;99.90;;;;;;5041275;28;20205;-41
2020/12/22 07:29:07;;;;;;;6.20;5.80;;;12.90;99.90;;;;;;5012782;28;20280;-41
2020/12/22 07:31:35;;;;;;;4.95;4.65;;;12.90;99.90;;;;;;5045024;28;20226;-40
2020/12/22 07:34:05;;;;;;;5.30;5.00;;;12.90;99.90;;;;;;5050014;28;20205;-40
2020/12/22 07:36:32;;;;;;;4.65;4.35;;;12.90;99.90;;;;;;5039872;28;20555;-40
2020/12/22 07:39:18;;;;;;;4.28;3.95;;;13.00;99.90;;;;;;5034981;28;20205;-41
2020/12/22 07:41:45;;;;;;;4.47;4.10;;;13.00;99.90;;;;;;5039749;28;20218;-41
2020/12/22 07:44:14;;;;;;;3.65;3.45;;;13.10;99.90;;;;;;5048181;28;20197;-41
2020/12/22 07:46:42;;;;;;;4.00;3.78;;;13.10;99.90;;;;;;5039803;28;20206;-41
2020/12/22 07:49:10;;;;;;;4.00;3.80;;;13.10;99.90;;;;;;5037510;28;20655;-41
2020/12/22 07:51:40;;;;;;;3.95;3.65;;;13.20;99.90;;;;;;5041854;28;20218;-40
2020/12/22 07:54:07;;;;;;;4.35;4.15;;;13.20;99.90;;;;;;5033716;28;20256;-40
2020/12/22 07:56:36;;;;;;;3.85;3.55;;;13.20;99.90;;;;;;5035407;28;20208;-40
2020/12/22 07:59:04;;;;;;;3.30;3.10;;;13.20;99.90;;;;;;5033552;28;20205;-41
2020/12/22 08:01:39;;;;;;;3.45;3.15;;;13.20;99.90;;;;;;5033487;28;20249;-40
2020/12/22 08:04:13;;;;;;;3.05;2.95;;;13.20;99.90;;;;;;5034696;28;20210;-40
2020/12/22 08:06:39;;;;;;;2.97;2.67;;;13.20;99.90;;;;;;5041786;28;20342;-41
2020/12/22 08:09:07;;;;;;;3.03;2.92;;;13.10;99.90;;;;;;5039555;28;20211;-40
2020/12/22 08:11:35;;;;;;;2.95;2.83;;;13.10;99.90;;;;;;5052843;28;20260;-41
2020/12/22 08:14:03;;;;;;;3.33;3.05;;;13.00;99.90;;;;;;5061737;28;20206;-41
2020/12/22 08:16:34;;;;;;;4.45;4.15;;;13.00;99.90;;;;;;5054507;28;20235;-40
2020/12/22 08:19:04;;;;;;;3.70;3.50;;;12.90;99.90;;;;;;5051875;28;20206;-40
2020/12/22 08:21:32;;;;;;;3.90;3.60;;;12.90;99.90;;;;;;5045424;28;20249;-40
2020/12/22 08:23:59;;;;;;;3.88;3.58;;;12.90;99.90;;;;;;5053675;28;20202;-41
2020/12/22 08:26:26;;;;;;;4.10;3.80;;;12.90;99.90;;;;;;5054116;28;20288;-41
2020/12/22 08:28:55;;;;;;;3.80;3.60;;;12.90;99.90;;;;;;5051915;28;20228;-42
2020/12/22 08:31:24;;;;;;;2.00;1.90;;;12.90;99.90;;;;;;5049313;28;20273;-42
2020/12/22 08:33:53;;;;;;;2.65;2.45;;;12.90;99.90;;;;;;5033319;28;20298;-42
2020/12/22 08:36:22;;;;;;;2.38;2.17;;;12.90;99.90;;;;;;5036056;28;20201;-42
2020/12/22 08:38:48;;;;;;;1.63;1.52;;;12.90;99.90;;;;;;5053223;28;20204;-42
2020/12/22 08:41:18;;;;;;;2.25;1.10;;;13.00;99.90;;;;;;5035357;28;20238;-41
2020/12/22 08:43:52;;;;;;;1.05;1.05;;;13.10;99.90;;;;;;5046314;28;20618;-41
2020/12/22 08:46:20;;;;;;;1.58;1.10;;;13.10;99.90;;;;;;5042939;28;20207;-42
2020/12/22 08:48:47;;;;;;;0.98;0.80;;;13.10;99.90;;;;;;5041966;28;20216;-42
2020/12/22 08:51:25;;;;;;;0.60;0.60;;;13.10;99.90;;;;;;5031916;28;20721;-42
2020/12/22 08:53:53;;;;;;;0.98;0.75;;;13.20;99.90;;;;;;5032705;28;20262;-41
2020/12/22 08:56:24;;;;;;;2.10;1.25;;;13.30;99.90;;;;;;5033141;28;20214;-42
2020/12/22 08:58:56;;;;;;;3.45;0.98;;;13.40;99.90;;;;;;5046791;28;20239;-41
2020/12/22 09:01:25;;;;;;;2.60;0.60;;;13.30;99.90;;;;;;5049266;28;20307;-42
2020/12/22 09:03:53;;;;;;;1.80;1.10;;;13.40;99.90;;;;;;5041007;28;20229;-41
2020/12/22 09:06:35;;;;;;;2.25;1.00;;;13.40;99.90;;;;;;5041864;28;20210;-41
2020/12/22 09:09:03;;;;;;;1.40;0.68;;;13.40;99.90;;;;;;5045667;28;20598;-41
2020/12/22 09:11:30;;;;;;;1.75;0.90;;;13.50;99.90;;;;;;5055244;28;20226;-41
2020/12/22 09:14:18;;;;;;;4.20;0.93;;;13.50;99.90;;;;;;5052332;28;20237;-41
2020/12/22 09:16:48;;;;;;;2.03;1.45;;;13.50;99.90;;;;;;5040312;28;20211;-41
2020/12/22 09:19:15;;;;;;;4.00;1.13;;;13.50;99.90;;;;;;5043953;28;20229;-41
2020/12/22 09:21:41;;;;;;;1.48;0.68;;;13.60;99.90;;;;;;5049075;28;20249;-42
2020/12/22 09:24:14;;;;;;;1.63;1.05;;;13.60;99.90;;;;;;5051357;28;20284;-42
2020/12/22 09:26:53;;;;;;;5.85;1.10;;;13.60;99.90;;;;;;5049744;28;20291;-42
2020/12/22 09:29:19;;;;;;;1.85;0.93;;;13.50;99.90;;;;;;5046813;28;20300;-43
2020/12/22 09:31:46;;;;;;;2.17;0.80;;;13.60;99.90;;;;;;5041011;28;20249;-43
2020/12/22 09:34:14;;;;;;;1.30;1.20;;;13.60;99.90;;;;;;5044447;28;20298;-42
2020/12/22 09:36:41;;;;;;;1.67;1.10;;;13.60;99.90;;;;;;5045601;28;20291;-43
2020/12/22 09:39:08;;;;;;;1.92;1.60;;;13.70;99.90;;;;;;5058696;28;20583;-42
2020/12/22 09:41:41;;;;;;;1.60;1.23;;;13.70;99.90;;;;;;5047544;28;20312;-43
2020/12/22 09:44:09;;;;;;;3.85;1.10;;;13.70;99.90;;;;;;5051758;28;20199;-43
2020/12/22 09:46:36;;;;;;;3.33;1.58;;;13.80;99.90;;;;;;5048670;28;20205;-43
2020/12/22 09:49:04;;;;;;;3.53;1.42;;;13.80;99.90;;;;;;5033697;28;20861;-42
2020/12/22 09:51:31;;;;;;;2.63;1.33;;;13.90;99.90;;;;;;5047573;28;20241;-42
2020/12/22 09:53:58;;;;;;;1.05;0.73;;;13.80;99.90;;;;;;5039582;28;20203;-41
2020/12/22 09:56:26;;;;;;;3.55;1.67;;;13.80;99.90;;;;;;5050538;28;20198;-42
2020/12/22 09:58:53;;;;;;;1.27;0.80;;;13.80;99.90;;;;;;5048338;28;20832;-42
2020/12/22 10:01:24;;;;;;;1.00;0.93;;;13.80;99.90;;;;;;5051045;28;20221;-42
2020/12/22 10:03:51;;;;;;;3.05;0.93;;;13.70;99.90;;;;;;5052398;28;20298;-40
2020/12/22 10:06:20;;;;;;;2.75;1.33;;;13.70;99.90;;;;;;5051499;28;20289;-42
2020/12/22 10:08:47;;;;;;;1.05;0.95;;;13.70;99.90;;;;;;5040306;28;20731;-42
2020/12/22 10:11:14;;;;;;;1.45;1.35;;;13.70;99.90;;;;;;5039832;28;20220;-43
2020/12/22 10:13:42;;;;;;;1.60;1.50;;;13.70;99.90;;;;;;5051180;28;20199;-41
2020/12/22 10:16:09;;;;;;;1.70;1.03;;;13.80;99.90;;;;;;5044362;28;20209;-41
2020/12/22 10:18:36;;;;;;;1.90;1.35;;;13.80;99.90;;;;;;5031833;28;20226;-41
2020/12/22 10:21:05;;;;;;;1.25;1.17;;;13.80;99.90;;;;;;5037092;28;20235;-42
2020/12/22 10:23:34;;;;;;;1.20;1.10;;;13.70;99.90;;;;;;5050815;28;20302;-41
2020/12/22 10:26:03;;;;;;;2.15;1.63;;;13.70;99.90;;;;;;5037297;28;20742;-42
2020/12/22 10:28:30;;;;;;;1.30;1.20;;;13.70;99.90;;;;;;5014256;28;20221;-42
2020/12/22 10:30:57;;;;;;;3.75;1.30;;;13.70;99.90;;;;;;5032470;28;20245;-41
2020/12/22 10:33:25;;;;;;;1.83;1.73;;;13.70;99.90;;;;;;5031552;28;20204;-41
2020/12/22 10:35:52;;;;;;;1.73;1.00;;;13.70;99.90;;;;;;5032011;28;20289;-41
2020/12/22 10:38:19;;;;;;;2.47;2.28;;;13.70;99.90;;;;;;5031343;28;20201;-41
2020/12/22 10:40:48;;;;;;;1.40;1.30;;;13.70;99.90;;;;;;5031940;28;20372;-41
2020/12/22 10:43:15;;;;;;;1.50;1.38;;;13.60;99.90;;;;;;5042064;28;20194;-42
2020/12/22 10:45:43;;;;;;;2.60;2.10;;;13.70;99.90;;;;;;5034647;28;20208;-40
2020/12/22 10:48:10;;;;;;;1.48;0.93;;;13.70;99.90;;;;;;5039892;28;20217;-43
2020/12/22 10:50:38;;;;;;;2.03;1.88;;;13.60;99.90;;;;;;5049547;28;20244;-42
2020/12/22 10:53:07;;;;;;;1.15;1.00;;;13.90;99.90;;;;;;5050334;28;20251;-42
2020/12/22 10:55:34;;;;;;;1.33;1.05;;;13.90;99.90;;;;;;5044862;28;20223;-42
2020/12/22 10:58:02;;;;;;;0.98;0.98;;;13.90;99.90;;;;;;5040661;28;20318;-41
2020/12/22 11:00:29;;;;;;;0.80;0.80;;;13.90;99.90;;;;;;5036285;28;20539;-41
2020/12/22 11:02:59;;;;;;;1.55;1.40;;;13.90;99.90;;;;;;5050631;28;20244;-41
2020/12/22 11:08:11;;;;;;;0.80;0.80;;;14.20;99.90;;;;;;5043269;28;20218;-41
2020/12/22 11:10:38;;;;;;;1.67;0.90;;;14.70;99.90;;;;;;5049281;28;20223;-42
2020/12/22 11:13:06;;;;;;;0.70;0.70;;;14.70;99.90;;;;;;5041695;28;20282;-42
2020/12/22 11:15:33;;;;;;;6.85;1.35;;;14.80;99.90;;;;;;5032171;28;20194;-41
2020/12/22 11:18:00;;;;;;;2.70;1.00;;;15.00;99.90;;;;;;5013690;28;20214;-42
2020/12/22 11:20:27;;;;;;;0.93;0.93;;;15.40;99.90;;;;;;5029694;28;20202;-42
2020/12/22 11:22:54;;;;;;;0.85;0.80;;;15.40;99.90;;;;;;5031148;28;20208;-42
2020/12/22 11:25:21;;;;;;;2.30;1.10;;;15.70;99.90;;;;;;5032315;28;20202;-42
2020/12/22 11:27:48;;;;;;;1.55;0.80;;;16.30;99.90;;;;;;5034898;28;20201;-42
2020/12/22 11:30:16;;;;;;;2.55;0.90;;;16.20;99.90;;;;;;5042542;28;20206;-41
2020/12/22 11:32:43;;;;;;;1.25;0.80;;;15.60;99.90;;;;;;5035098;28;20207;-41
2020/12/22 11:35:10;;;;;;;1.73;1.63;;;15.30;99.90;;;;;;5051923;28;20228;-41
2020/12/22 11:37:38;;;;;;;1.63;1.00;;;15.80;99.90;;;;;;5052822;28;20200;-41
2020/12/22 11:40:06;;;;;;;1.27;0.80;;;15.70;99.90;;;;;;5050917;28;20195;-40
2020/12/22 11:42:33;;;;;;;4.38;0.95;;;15.30;99.90;;;;;;5035243;28;20243;-42
2020/12/22 11:45:00;;;;;;;1.00;0.90;;;15.10;99.90;;;;;;5035423;28;20231;-43
2020/12/22 11:47:27;;;;;;;0.90;0.70;;;15.10;99.90;;;;;;5049596;28;20228;-43
2020/12/22 11:49:54;;;;;;;1.85;0.80;;;15.00;99.90;;;;;;5047971;28;20298;-41
2020/12/22 11:52:21;;;;;;;6.25;1.25;;;14.80;99.90;;;;;;5032583;28;20223;-42
2020/12/22 11:54:48;;;;;;;2.38;1.10;;;14.60;99.90;;;;;;5051502;28;20260;-43
2020/12/22 11:57:15;;;;;;;0.98;0.98;;;14.40;99.90;;;;;;5044575;28;20819;-43
2020/12/22 11:59:42;;;;;;;1.00;1.00;;;14.20;99.90;;;;;;5054728;28;20221;-43
2020/12/22 12:02:09;;;;;;;2.45;1.20;;;14.00;99.90;;;;;;5042243;28;20570;-40
2020/12/22 12:04:37;;;;;;;8.27;1.33;;;13.80;99.90;;;;;;5044034;28;20214;-41
2020/12/22 12:07:04;;;;;;;2.70;1.15;;;13.80;99.90;;;;;;5042301;28;20310;-40
2020/12/22 12:09:31;;;;;;;1.50;1.10;;;13.80;99.90;;;;;;5054352;28;20694;-41
2020/12/22 12:11:58;;;;;;;1.30;1.20;;;13.70;99.90;;;;;;5046858;28;20363;-42
2020/12/22 12:14:25;;;;;;;1.40;1.30;;;13.60;99.90;;;;;;5035552;28;20278;-41
2020/12/22 12:16:52;;;;;;;1.63;1.38;;;13.40;99.90;;;;;;5035373;28;20294;-41
2020/12/22 12:19:19;;;;;;;1.38;1.23;;;13.30;99.90;;;;;;5047510;28;20196;-41
2020/12/22 12:21:47;;;;;;;1.40;1.23;;;13.40;99.90;;;;;;5042204;28;20695;-42
2020/12/22 12:24:14;;;;;;;1.10;1.10;;;13.40;99.90;;;;;;5044661;28;20197;-42
2020/12/22 12:26:41;;;;;;;1.23;1.13;;;13.40;99.90;;;;;;5042193;28;21146;-42
2020/12/22 12:29:09;;;;;;;1.55;1.45;;;13.40;99.90;;;;;;5041853;28;20248;-41
2020/12/22 12:31:37;;;;;;;1.63;0.93;;;13.40;99.90;;;;;;5033120;28;20744;-43
2020/12/22 12:34:04;;;;;;;2.30;1.50;;;13.40;99.90;;;;;;5033582;28;20331;-41
2020/12/22 12:36:32;;;;;;;2.22;1.27;;;13.50;99.90;;;;;;5018064;28;20566;-40
2020/12/22 12:39:02;;;;;;;1.23;1.08;;;13.50;99.90;;;;;;5047221;28;20237;-40
2020/12/22 12:41:29;;;;;;;1.23;0.80;;;13.60;99.90;;;;;;5040751;28;20222;-40
2020/12/22 12:43:56;;;;;;;0.70;0.70;;;13.60;99.90;;;;;;5046060;28;20193;-41
2020/12/22 12:46:25;;;;;;;1.50;0.68;;;13.50;99.90;;;;;;5051559;28;20221;-40
2020/12/22 12:48:54;;;;;;;0.90;0.80;;;13.50;99.90;;;;;;5032678;28;20285;-42
2020/12/22 12:51:21;;;;;;;0.90;0.85;;;13.50;99.90;;;;;;5033413;28;20590;-41
2020/12/22 12:53:48;;;;;;;4.50;1.35;;;13.50;99.90;;;;;;5042387;28;20206;-41
2020/12/22 12:56:17;;;;;;;1.30;1.20;;;13.50;99.90;;;;;;5041279;28;20290;-42
2020/12/22 12:58:44;;;;;;;0.80;0.80;;;13.40;99.90;;;;;;5044710;28;20219;-41